Time;durP1;ratioP1;P1;durP2;ratioP2;P2;SDS_P1;SDS_P2;PMS_P1;PMS_P2;Temp;Humidity;BMP_temperature;BMP_pressure;BME280_temperature;BME280_humidity;BME280_pressure;Samples;Min_cycle;Max_cycle;Signal;HPM_P1;HPM_P2
2020/12/10 00:02:12;;;;;;;18.48;10.60;;;5.10;83.90;;;;;;5138462;27;20057;-77
2020/12/10 00:04:38;;;;;;;16.50;9.38;;;5.10;84.00;;;;;;5157772;27;20038;-77
2020/12/10 00:07:04;;;;;;;16.85;10.02;;;5.00;83.90;;;;;;5139132;27;20027;-77
2020/12/10 00:09:30;;;;;;;15.40;9.23;;;5.00;83.90;;;;;;5139074;27;20027;-77
2020/12/10 00:11:56;;;;;;;15.85;9.45;;;4.90;84.00;;;;;;5139768;27;20533;-77
2020/12/10 00:14:22;;;;;;;16.55;9.10;;;4.80;84.20;;;;;;5139213;27;20115;-77
2020/12/10 00:16:49;;;;;;;15.23;8.57;;;4.80;84.20;;;;;;5157864;27;20031;-77
2020/12/10 00:19:15;;;;;;;16.58;9.30;;;4.70;84.20;;;;;;5139206;27;20485;-77
2020/12/10 00:21:41;;;;;;;14.85;9.13;;;4.70;84.30;;;;;;5138673;27;20155;-77
2020/12/10 00:27:29;;;;;;;18.40;10.52;;;4.50;84.50;;;;;;5157807;27;20029;-77
2020/12/10 00:29:57;;;;;;;16.85;10.23;;;4.40;84.60;;;;;;5157679;27;20477;-74
2020/12/10 00:32:26;;;;;;;15.93;9.27;;;4.40;84.70;;;;;;5157231;27;20042;-75
2020/12/10 00:34:55;;;;;;;17.13;10.05;;;4.30;84.70;;;;;;5138452;27;20031;-74
2020/12/10 00:37:21;;;;;;;15.77;9.63;;;4.30;84.90;;;;;;5138602;27;20033;-75
2020/12/10 00:39:46;;;;;;;15.45;9.30;;;4.30;84.90;;;;;;5138514;27;20027;-75
2020/12/10 00:42:12;;;;;;;15.63;9.75;;;4.30;85.00;;;;;;5138481;27;20111;-74
2020/12/10 00:44:38;;;;;;;16.00;9.93;;;4.30;84.90;;;;;;5138461;27;20022;-74
2020/12/10 00:47:04;;;;;;;16.73;10.07;;;4.30;84.90;;;;;;5138401;27;20025;-74
2020/12/10 00:49:30;;;;;;;15.32;9.82;;;4.30;84.90;;;;;;5156969;27;20512;-75
2020/12/10 00:51:55;;;;;;;17.92;11.10;;;4.40;84.80;;;;;;5157528;27;20023;-74
2020/12/10 00:54:21;;;;;;;16.52;9.90;;;4.40;84.70;;;;;;5156830;27;20419;-74
2020/12/10 00:56:48;;;;;;;18.20;10.90;;;4.40;84.70;;;;;;5138028;27;20034;-75
2020/12/10 00:59:14;;;;;;;16.73;10.60;;;4.30;84.60;;;;;;5137943;27;20027;-74
2020/12/10 01:01:42;;;;;;;17.60;10.50;;;4.30;84.60;;;;;;5138115;27;20049;-74
2020/12/10 01:04:08;;;;;;;18.27;11.25;;;4.20;84.60;;;;;;5137826;27;20030;-74
2020/12/10 01:06:34;;;;;;;16.23;10.02;;;4.20;84.70;;;;;;5138105;27;20034;-74
2020/12/10 01:09:00;;;;;;;16.88;10.50;;;4.10;84.60;;;;;;5156768;27;20389;-74
2020/12/10 01:11:29;;;;;;;15.15;10.05;;;4.10;84.80;;;;;;5137753;27;20027;-74
2020/12/10 01:13:55;;;;;;;15.65;9.32;;;4.00;84.80;;;;;;5136753;27;20026;-74
2020/12/10 01:16:24;;;;;;;17.13;10.85;;;4.00;84.80;;;;;;5137736;27;20489;-74
2020/12/10 01:18:50;;;;;;;18.15;10.38;;;4.10;84.90;;;;;;5137459;27;20035;-74
2020/12/10 01:21:29;;;;;;;16.85;10.60;;;4.00;84.90;;;;;;5156300;27;20130;-75
2020/12/10 01:23:56;;;;;;;16.08;9.82;;;4.00;84.90;;;;;;5156535;27;20023;-75
2020/12/10 01:26:23;;;;;;;17.98;10.70;;;4.00;84.80;;;;;;5156258;27;20058;-74
2020/12/10 01:28:48;;;;;;;16.63;10.45;;;3.90;85.40;;;;;;5156056;27;20038;-74
2020/12/10 01:31:14;;;;;;;17.75;10.38;;;3.90;84.80;;;;;;5156105;27;20019;-75
2020/12/10 01:33:40;;;;;;;15.10;9.10;;;3.90;84.80;;;;;;5137083;27;20406;-75
2020/12/10 01:36:05;;;;;;;16.15;10.35;;;3.90;84.90;;;;;;5134383;27;20157;-74
2020/12/10 01:38:31;;;;;;;20.67;11.05;;;3.90;84.80;;;;;;5137092;27;20075;-74
2020/12/10 01:40:57;;;;;;;15.90;10.20;;;3.90;84.90;;;;;;5137224;27;20038;-74
2020/12/10 01:43:22;;;;;;;18.23;11.18;;;3.90;84.80;;;;;;5155595;27;20069;-75
2020/12/10 01:45:48;;;;;;;19.33;11.80;;;3.90;84.90;;;;;;5155869;27;20116;-75
2020/12/10 01:48:14;;;;;;;19.40;10.95;;;3.90;84.90;;;;;;5136883;27;20041;-74
2020/12/10 01:50:39;;;;;;;16.00;9.98;;;3.80;84.80;;;;;;5137124;27;20470;-74
2020/12/10 01:53:05;;;;;;;19.50;11.20;;;3.80;84.90;;;;;;5155519;27;20376;-74
2020/12/10 01:55:31;;;;;;;18.30;10.07;;;3.80;84.80;;;;;;5136754;27;20026;-74
2020/12/10 01:57:57;;;;;;;18.60;11.02;;;3.80;84.80;;;;;;5155410;27;20026;-74
2020/12/10 02:00:22;;;;;;;14.85;9.10;;;3.70;84.80;;;;;;5136637;27;20038;-74
2020/12/10 02:02:55;;;;;;;20.48;11.30;;;3.70;84.80;;;;;;5136725;27;20035;-74
2020/12/10 02:05:21;;;;;;;18.40;10.10;;;3.70;84.80;;;;;;5136555;27;20026;-74
2020/12/10 02:07:47;;;;;;;20.33;12.32;;;3.60;84.80;;;;;;5136792;27;20037;-75
2020/12/10 02:10:13;;;;;;;18.27;10.38;;;3.60;84.90;;;;;;5136856;27;20500;-75
2020/12/10 02:12:40;;;;;;;18.92;11.15;;;3.50;84.80;;;;;;5155846;27;20022;-74
2020/12/10 02:15:07;;;;;;;17.25;10.32;;;3.50;84.70;;;;;;5136634;27;20018;-74
2020/12/10 02:17:34;;;;;;;20.77;12.07;;;3.30;85.30;;;;;;5155713;27;20122;-74
2020/12/10 02:20:00;;;;;;;18.88;11.60;;;3.30;84.90;;;;;;5136495;27;20022;-74
2020/12/10 02:22:26;;;;;;;24.48;12.60;;;3.20;85.00;;;;;;5136112;27;20084;-74
2020/12/10 02:24:51;;;;;;;23.77;12.02;;;3.20;85.10;;;;;;5135983;27;20083;-74
2020/12/10 02:27:17;;;;;;;18.98;11.35;;;3.10;85.10;;;;;;5136225;27;20060;-74
2020/12/10 02:29:43;;;;;;;19.15;11.13;;;3.10;85.10;;;;;;5136047;27;20388;-74
2020/12/10 02:32:09;;;;;;;19.70;11.82;;;3.10;85.20;;;;;;5136204;27;20023;-74
2020/12/10 02:34:34;;;;;;;20.85;12.32;;;3.10;85.20;;;;;;5135965;27;20050;-74
2020/12/10 02:37:00;;;;;;;18.25;10.95;;;3.10;85.10;;;;;;5133188;27;20034;-74
2020/12/10 02:39:26;;;;;;;21.55;10.98;;;3.00;85.10;;;;;;5136108;27;20019;-74
2020/12/10 02:41:51;;;;;;;21.02;11.60;;;3.00;85.10;;;;;;5136163;27;20022;-74
2020/12/10 02:44:17;;;;;;;20.00;10.63;;;3.00;85.10;;;;;;5154695;27;20358;-74
2020/12/10 02:46:43;;;;;;;21.83;11.90;;;3.00;85.10;;;;;;5154764;27;20038;-74
2020/12/10 02:49:09;;;;;;;19.52;10.93;;;3.00;85.10;;;;;;5154482;27;20393;-75
2020/12/10 02:51:34;;;;;;;21.90;12.45;;;3.00;85.10;;;;;;5136764;27;20126;-75
2020/12/10 02:54:00;;;;;;;20.73;12.07;;;3.10;85.10;;;;;;5136240;27;20023;-74
2020/12/10 02:56:26;;;;;;;22.42;12.05;;;3.10;84.90;;;;;;5155332;27;20033;-74
2020/12/10 02:58:51;;;;;;;21.13;11.15;;;3.10;84.90;;;;;;5136494;27;20034;-74
2020/12/10 03:01:17;;;;;;;19.73;11.60;;;3.10;84.90;;;;;;5154916;27;20041;-74
2020/12/10 03:03:44;;;;;;;20.95;11.25;;;3.00;84.80;;;;;;5133245;27;20509;-75
2020/12/10 03:06:11;;;;;;;23.00;12.43;;;3.00;84.90;;;;;;5154635;27;20473;-74
2020/12/10 03:08:37;;;;;;;21.42;11.73;;;3.00;85.00;;;;;;5136020;27;20031;-74
2020/12/10 03:11:03;;;;;;;21.90;11.73;;;2.90;84.90;;;;;;5154601;27;20027;-75
2020/12/10 03:13:29;;;;;;;22.67;12.20;;;2.90;84.90;;;;;;5136036;27;20067;-74
2020/12/10 03:15:55;;;;;;;19.55;11.30;;;2.90;84.90;;;;;;5135925;27;20030;-74
2020/12/10 03:18:20;;;;;;;23.05;11.50;;;2.80;84.90;;;;;;5135891;27;20015;-74
2020/12/10 03:20:46;;;;;;;20.02;11.63;;;2.80;84.90;;;;;;5135844;27;20109;-74
2020/12/10 03:23:12;;;;;;;20.20;11.65;;;2.80;85.00;;;;;;5135709;27;20030;-75
2020/12/10 03:25:38;;;;;;;22.00;11.38;;;2.70;84.90;;;;;;5154562;27;20050;-74
2020/12/10 03:28:03;;;;;;;22.45;12.32;;;2.80;85.00;;;;;;5135918;27;20019;-74
2020/12/10 03:30:29;;;;;;;22.02;12.38;;;2.80;85.00;;;;;;5135687;27;20035;-74
2020/12/10 03:32:55;;;;;;;23.83;12.77;;;2.70;85.00;;;;;;5135581;27;20151;-74
2020/12/10 03:35:21;;;;;;;22.98;12.52;;;2.70;84.90;;;;;;5131184;27;20022;-74
2020/12/10 03:37:46;;;;;;;19.55;11.57;;;2.70;84.90;;;;;;5139903;27;20054;-75
2020/12/10 03:40:12;;;;;;;21.67;11.85;;;2.70;84.80;;;;;;5139863;27;20034;-74
2020/12/10 03:42:38;;;;;;;20.45;11.43;;;2.70;84.80;;;;;;5139622;27;20453;-74
2020/12/10 03:45:05;;;;;;;22.98;12.32;;;2.60;84.80;;;;;;5136773;27;20026;-74
2020/12/10 03:47:31;;;;;;;18.33;10.68;;;2.60;84.80;;;;;;5139955;27;20483;-74
2020/12/10 03:49:57;;;;;;;21.05;11.65;;;2.60;84.70;;;;;;5139494;27;20031;-74
2020/12/10 03:52:23;;;;;;;20.42;11.10;;;2.60;84.70;;;;;;5139541;27;20386;-74
2020/12/10 03:54:49;;;;;;;21.48;11.50;;;2.60;84.70;;;;;;5158706;27;20071;-74
2020/12/10 03:57:14;;;;;;;20.10;11.65;;;2.60;84.70;;;;;;5139720;27;20022;-74
2020/12/10 03:59:40;;;;;;;20.77;11.82;;;2.60;84.70;;;;;;5140089;27;20034;-74
2020/12/10 04:02:06;;;;;;;19.52;11.63;;;2.60;84.70;;;;;;5139546;27;20031;-74
2020/12/10 04:04:31;;;;;;;23.20;11.50;;;2.50;84.60;;;;;;5139433;27;20383;-74
2020/12/10 04:06:57;;;;;;;22.00;12.50;;;2.50;84.60;;;;;;5139411;27;20035;-74
2020/12/10 04:09:23;;;;;;;19.80;11.70;;;2.50;84.70;;;;;;5139122;27;20023;-74
2020/12/10 04:11:48;;;;;;;21.42;11.13;;;2.60;84.70;;;;;;5155167;27;20109;-74
2020/12/10 04:14:14;;;;;;;19.20;11.23;;;2.50;84.60;;;;;;5139385;27;20027;-74
2020/12/10 04:16:39;;;;;;;21.90;11.68;;;2.50;84.50;;;;;;5139362;27;20050;-74
2020/12/10 04:19:05;;;;;;;22.85;12.55;;;2.50;84.60;;;;;;5139193;27;20555;-74
2020/12/10 04:21:31;;;;;;;20.73;10.82;;;2.50;84.50;;;;;;5157436;27;20037;-74
2020/12/10 04:23:56;;;;;;;20.20;11.68;;;2.50;84.50;;;;;;5138935;27;20023;-75
2020/12/10 04:26:22;;;;;;;23.25;12.73;;;2.50;84.50;;;;;;5138871;27;20027;-74
2020/12/10 04:28:48;;;;;;;24.40;12.93;;;2.40;84.40;;;;;;5139060;27;20027;-73
2020/12/10 04:31:16;;;;;;;22.33;12.25;;;2.40;84.40;;;;;;5138925;27;20033;-73
2020/12/10 04:33:42;;;;;;;23.10;13.35;;;2.50;84.50;;;;;;5135864;27;20405;-73
2020/12/10 04:36:08;;;;;;;28.98;13.70;;;2.50;84.50;;;;;;5157248;27;20019;-74
2020/12/10 04:38:33;;;;;;;23.23;12.68;;;2.50;84.50;;;;;;5157260;27;20041;-74
2020/12/10 04:41:01;;;;;;;21.42;12.45;;;2.50;84.40;;;;;;5138891;27;20039;-74
2020/12/10 04:43:27;;;;;;;21.10;11.77;;;2.50;84.40;;;;;;5157169;27;20037;-74
2020/12/10 04:46:39;;;;;;;23.67;13.13;;;2.50;84.30;;;;;;5157657;27;20027;-73
2020/12/10 04:52:27;;;;;;;24.38;12.35;;;2.50;84.30;;;;;;5157417;27;20034;-74
2020/12/10 04:54:53;;;;;;;20.15;12.25;;;2.50;84.30;;;;;;5138346;27;20033;-74
2020/12/10 04:57:20;;;;;;;23.70;11.90;;;2.40;84.30;;;;;;5138180;27;20023;-74
2020/12/10 04:59:46;;;;;;;24.77;13.27;;;2.40;84.30;;;;;;5138298;27;20023;-74
2020/12/10 05:02:12;;;;;;;23.20;12.70;;;2.40;84.40;;;;;;5157214;27;20084;-74
2020/12/10 05:04:40;;;;;;;22.98;11.75;;;2.40;84.50;;;;;;5138341;27;20389;-74
2020/12/10 05:07:06;;;;;;;19.10;10.98;;;2.40;84.50;;;;;;5138591;27;20023;-74
2020/12/10 05:09:32;;;;;;;18.90;10.80;;;2.30;84.40;;;;;;5137769;27;20022;-73
2020/12/10 05:11:58;;;;;;;21.88;11.60;;;2.30;84.40;;;;;;5137787;27;20034;-73
2020/12/10 05:14:24;;;;;;;21.38;11.77;;;2.30;84.40;;;;;;5134767;27;20359;-74
2020/12/10 05:17:13;;;;;;;23.17;12.88;;;2.30;84.50;;;;;;5137754;27;20040;-74
2020/12/10 05:19:41;;;;;;;23.98;12.18;;;2.30;84.50;;;;;;5137688;27;20076;-74
2020/12/10 05:22:09;;;;;;;24.35;12.98;;;2.20;84.40;;;;;;5137605;27;20023;-74
2020/12/10 05:24:35;;;;;;;27.35;13.93;;;2.20;84.50;;;;;;5156162;27;20030;-73
2020/12/10 05:27:22;;;;;;;24.95;13.27;;;2.20;85.10;;;;;;5152935;27;20375;-74
2020/12/10 05:29:50;;;;;;;22.45;12.88;;;2.30;84.50;;;;;;5155857;27;20030;-73
2020/12/10 05:32:36;;;;;;;25.02;13.73;;;2.30;84.50;;;;;;5137513;27;20442;-74
2020/12/10 05:35:20;;;;;;;22.83;12.48;;;2.30;84.50;;;;;;5137080;27;20039;-74
2020/12/10 05:37:46;;;;;;;21.75;12.32;;;2.20;84.40;;;;;;5137258;27;20360;-74
2020/12/10 05:40:13;;;;;;;22.98;12.75;;;2.20;84.40;;;;;;5137176;27;20022;-74
2020/12/10 05:42:44;;;;;;;23.70;12.13;;;2.20;84.50;;;;;;5155973;27;20031;-74
2020/12/10 05:48:34;;;;;;;22.55;12.43;;;2.20;84.50;;;;;;5155691;27;20024;-74
2020/12/10 05:51:02;;;;;;;26.33;13.00;;;2.20;84.30;;;;;;5134492;27;20077;-74
2020/12/10 05:53:33;;;;;;;28.13;14.15;;;2.10;84.40;;;;;;5155792;27;20026;-74
2020/12/10 05:56:01;;;;;;;24.60;13.23;;;2.10;84.50;;;;;;5136910;27;20331;-73
2020/12/10 05:58:29;;;;;;;26.38;13.95;;;2.10;84.60;;;;;;5136121;27;20214;-74
2020/12/10 06:00:55;;;;;;;26.10;13.75;;;2.10;84.50;;;;;;5136599;27;20470;-74
2020/12/10 06:03:22;;;;;;;26.00;13.75;;;2.10;84.50;;;;;;5155343;27;20026;-73
2020/12/10 06:06:05;;;;;;;25.63;13.07;;;2.20;84.50;;;;;;5136627;27;20053;-74
2020/12/10 06:08:38;;;;;;;29.48;12.32;;;2.10;84.40;;;;;;5136319;27;20030;-73
2020/12/10 06:11:05;;;;;;;24.33;12.23;;;2.10;84.50;;;;;;5119593;27;20026;-74
2020/12/10 06:13:31;;;;;;;24.23;12.52;;;2.10;84.50;;;;;;5155085;27;20385;-74
2020/12/10 06:16:12;;;;;;;24.45;14.00;;;2.10;84.60;;;;;;5137118;27;20074;-73
2020/12/10 06:18:54;;;;;;;26.75;13.32;;;2.10;84.60;;;;;;5136379;27;20061;-73
2020/12/10 06:21:56;;;;;;;21.48;11.70;;;2.10;84.70;;;;;;5136470;27;20046;-73
2020/12/10 06:24:24;;;;;;;20.63;11.93;;;2.10;84.70;;;;;;5054349;28;20119;-74
2020/12/10 06:26:51;;;;;;;22.95;12.93;;;2.10;84.60;;;;;;5139186;27;20041;-74
2020/12/10 06:29:30;;;;;;;21.25;12.25;;;2.10;84.60;;;;;;5136253;27;20049;-74
2020/12/10 06:32:14;;;;;;;24.15;12.88;;;2.10;84.60;;;;;;5133509;27;20030;-74
2020/12/10 06:34:48;;;;;;;24.08;11.35;;;2.10;84.50;;;;;;5135952;27;20043;-74
2020/12/10 06:37:28;;;;;;;22.45;11.82;;;2.10;84.40;;;;;;5136119;27;20019;-74
2020/12/10 06:40:03;;;;;;;22.20;11.95;;;2.20;84.40;;;;;;5136338;27;20048;-74
2020/12/10 06:42:46;;;;;;;22.42;12.30;;;2.10;84.20;;;;;;5154601;27;20023;-75
2020/12/10 06:45:29;;;;;;;28.50;14.32;;;2.10;84.20;;;;;;5136203;27;20018;-74
2020/12/10 06:47:55;;;;;;;21.90;12.60;;;2.10;84.30;;;;;;5136180;27;20030;-75
2020/12/10 06:50:26;;;;;;;23.75;12.93;;;2.10;84.20;;;;;;5135306;27;20042;-74
2020/12/10 06:53:12;;;;;;;24.23;13.75;;;2.20;84.30;;;;;;5131208;27;20095;-74
2020/12/10 06:55:56;;;;;;;21.00;11.40;;;2.20;84.20;;;;;;5154582;27;20526;-75
2020/12/10 06:58:44;;;;;;;23.67;13.43;;;2.10;84.20;;;;;;5136102;27;20034;-73
2020/12/10 07:01:30;;;;;;;21.90;12.60;;;2.20;84.20;;;;;;5154816;27;20427;-74
2020/12/10 07:04:30;;;;;;;27.80;14.13;;;2.20;84.20;;;;;;5136042;27;20019;-74
2020/12/10 07:07:19;;;;;;;22.27;12.90;;;2.20;84.10;;;;;;5136073;27;20027;-74
2020/12/10 07:10:02;;;;;;;26.42;13.93;;;2.20;84.00;;;;;;5135748;27;20030;-73
2020/12/10 07:12:33;;;;;;;21.40;11.63;;;2.20;84.00;;;;;;5140140;27;20087;-74
2020/12/10 07:15:16;;;;;;;24.50;12.50;;;2.20;84.00;;;;;;5158994;27;20110;-74
2020/12/10 07:17:49;;;;;;;22.55;13.00;;;2.20;83.90;;;;;;5140445;27;20110;-74
2020/12/10 07:20:15;;;;;;;24.67;13.50;;;2.20;84.00;;;;;;5140338;27;20056;-74
2020/12/10 07:22:41;;;;;;;23.02;13.32;;;2.20;83.90;;;;;;5140556;27;20067;-74
2020/12/10 07:25:06;;;;;;;26.98;14.70;;;2.20;84.00;;;;;;5140135;27;20030;-74
2020/12/10 07:27:33;;;;;;;27.20;14.10;;;2.20;84.00;;;;;;5140262;27;20022;-73
2020/12/10 07:29:59;;;;;;;25.10;13.75;;;2.20;84.00;;;;;;5140082;27;20026;-73
2020/12/10 07:32:24;;;;;;;29.15;15.00;;;2.20;84.10;;;;;;5133846;27;20027;-74
2020/12/10 07:34:50;;;;;;;27.40;14.85;;;2.20;84.10;;;;;;5136140;27;20078;-74
2020/12/10 07:37:17;;;;;;;23.63;12.55;;;2.20;84.10;;;;;;5137127;27;20087;-74
2020/12/10 07:39:43;;;;;;;26.92;14.13;;;2.10;84.10;;;;;;5136179;27;20031;-74
2020/12/10 07:42:20;;;;;;;26.23;13.75;;;2.20;84.00;;;;;;5137701;27;20019;-73
2020/12/10 07:44:45;;;;;;;23.90;12.60;;;2.20;84.00;;;;;;5119037;27;20033;-73
2020/12/10 07:47:13;;;;;;;22.77;12.77;;;2.10;83.90;;;;;;5135809;27;20026;-74
2020/12/10 07:49:39;;;;;;;25.20;12.80;;;2.10;84.00;;;;;;5135911;27;20070;-73
2020/12/10 07:52:13;;;;;;;23.33;13.68;;;2.10;84.00;;;;;;5137248;27;20030;-74
2020/12/10 07:54:52;;;;;;;24.83;13.75;;;2.10;84.00;;;;;;5135928;27;20027;-74
2020/12/10 07:57:40;;;;;;;27.08;13.98;;;2.10;84.00;;;;;;5137755;27;20041;-73
2020/12/10 08:00:08;;;;;;;29.15;13.90;;;2.10;83.90;;;;;;5114751;28;20119;-73
2020/12/10 08:03:07;;;;;;;23.73;13.90;;;2.10;83.80;;;;;;5097446;28;20032;-73
2020/12/10 08:05:34;;;;;;;22.00;12.02;;;2.20;83.90;;;;;;5097338;28;20059;-74
2020/12/10 08:08:00;;;;;;;22.20;12.50;;;2.10;83.80;;;;;;5097502;28;20105;-73
2020/12/10 08:10:33;;;;;;;21.92;12.25;;;2.20;83.80;;;;;;5114403;28;20058;-73
2020/12/10 08:13:20;;;;;;;22.80;12.93;;;2.20;83.80;;;;;;5114399;28;20427;-73
2020/12/10 08:15:48;;;;;;;25.75;13.88;;;2.20;83.80;;;;;;5096941;28;20027;-74
2020/12/10 08:18:22;;;;;;;27.50;13.90;;;2.10;83.70;;;;;;5114232;28;20039;-73
2020/12/10 08:20:51;;;;;;;25.55;13.13;;;2.20;83.80;;;;;;5079878;28;20032;-73
2020/12/10 08:23:18;;;;;;;25.83;14.35;;;2.20;84.40;;;;;;5113748;28;20372;-74
2020/12/10 08:25:48;;;;;;;27.02;14.07;;;2.20;83.70;;;;;;5111192;28;20056;-73
2020/12/10 08:28:14;;;;;;;23.95;14.30;;;2.30;83.80;;;;;;5096628;28;20023;-74
2020/12/10 08:30:55;;;;;;;24.08;13.20;;;2.30;83.60;;;;;;5113877;28;20189;-73
2020/12/10 08:33:21;;;;;;;28.75;14.57;;;2.30;83.50;;;;;;5096717;28;20112;-73
2020/12/10 08:35:47;;;;;;;28.17;14.95;;;2.30;83.50;;;;;;5096655;28;20455;-73
2020/12/10 08:38:13;;;;;;;25.42;14.23;;;2.30;83.50;;;;;;5131981;27;20155;-73
2020/12/10 08:40:39;;;;;;;26.55;14.07;;;2.40;83.60;;;;;;5136501;27;20027;-73
2020/12/10 08:43:27;;;;;;;22.52;12.57;;;2.40;83.50;;;;;;5134863;27;20023;-74
2020/12/10 08:45:53;;;;;;;25.25;14.05;;;2.40;83.40;;;;;;5136106;27;20088;-73
2020/12/10 08:48:28;;;;;;;23.63;12.98;;;2.30;83.30;;;;;;5134876;27;20110;-73
2020/12/10 08:50:56;;;;;;;29.15;14.90;;;2.30;83.40;;;;;;5134923;27;20023;-73
2020/12/10 08:53:22;;;;;;;25.80;14.35;;;2.30;83.40;;;;;;5136091;27;20367;-74
2020/12/10 08:55:51;;;;;;;26.75;14.38;;;2.40;83.40;;;;;;5136372;27;20027;-73
2020/12/10 08:58:20;;;;;;;26.58;14.85;;;2.40;83.40;;;;;;5135938;27;20026;-73
2020/12/10 09:00:50;;;;;;;28.52;14.95;;;2.40;83.40;;;;;;5135937;27;20497;-73
2020/12/10 09:03:17;;;;;;;26.60;14.27;;;2.40;83.40;;;;;;5134512;27;20027;-73
2020/12/10 09:05:46;;;;;;;27.95;14.25;;;2.50;83.40;;;;;;5134376;27;20042;-73
2020/12/10 09:08:13;;;;;;;24.73;13.52;;;2.50;83.30;;;;;;5136045;27;20382;-73
2020/12/10 09:10:40;;;;;;;25.45;13.50;;;2.50;83.40;;;;;;5134352;27;20019;-74
2020/12/10 09:13:06;;;;;;;25.48;13.88;;;2.50;83.40;;;;;;5135671;27;20420;-73
2020/12/10 09:15:31;;;;;;;27.15;14.27;;;2.50;83.30;;;;;;5135593;27;20023;-74
2020/12/10 09:17:57;;;;;;;26.52;13.68;;;2.40;83.20;;;;;;5131416;27;20024;-74
2020/12/10 09:20:23;;;;;;;24.58;13.55;;;2.40;83.20;;;;;;5134531;27;20104;-74
2020/12/10 09:22:50;;;;;;;25.88;15.18;;;2.40;83.30;;;;;;5134483;27;20023;-73
2020/12/10 09:25:16;;;;;;;23.35;13.45;;;2.40;83.30;;;;;;5134285;27;20033;-73
2020/12/10 09:27:41;;;;;;;25.85;14.27;;;2.40;83.40;;;;;;5135822;27;20114;-73
2020/12/10 09:30:08;;;;;;;25.67;14.30;;;2.40;83.40;;;;;;5134038;27;20062;-73
2020/12/10 09:32:37;;;;;;;32.10;16.42;;;2.40;83.40;;;;;;5130252;27;20056;-74
2020/12/10 09:38:30;;;;;;;30.33;15.88;;;2.40;83.40;;;;;;5136247;27;20034;-74
2020/12/10 09:40:56;;;;;;;29.25;15.48;;;2.40;83.40;;;;;;5133818;27;20050;-73
2020/12/10 09:43:21;;;;;;;28.65;14.63;;;2.50;83.30;;;;;;5133770;27;20027;-73
2020/12/10 09:45:55;;;;;;;31.20;15.50;;;2.50;83.80;;;;;;5134654;27;20034;-74
2020/12/10 09:48:22;;;;;;;27.38;15.30;;;2.60;83.20;;;;;;5133738;27;20027;-73
2020/12/10 09:50:49;;;;;;;27.48;14.93;;;2.60;83.20;;;;;;5134619;27;20035;-73
2020/12/10 09:53:22;;;;;;;29.65;15.45;;;2.70;83.10;;;;;;5135714;27;20044;-73
2020/12/10 09:58:19;;;;;;;29.20;15.50;;;2.90;82.90;;;;;;5135163;27;20035;-74
2020/12/10 10:00:51;;;;;;;35.38;16.08;;;3.00;82.80;;;;;;5135186;27;20487;-73
2020/12/10 10:03:17;;;;;;;28.30;14.55;;;3.00;82.60;;;;;;5134544;27;20027;-73
2020/12/10 10:05:49;;;;;;;30.00;16.50;;;3.10;82.60;;;;;;5135646;27;20374;-74
2020/12/10 10:08:15;;;;;;;27.25;15.10;;;3.10;82.50;;;;;;5134602;27;20031;-73
2020/12/10 10:10:41;;;;;;;26.33;14.95;;;3.20;82.40;;;;;;5133084;27;20391;-73
2020/12/10 10:13:07;;;;;;;27.02;14.60;;;3.30;82.40;;;;;;5133510;27;20122;-73
2020/12/10 10:15:33;;;;;;;28.08;14.60;;;3.30;82.30;;;;;;5133266;27;20457;-73
2020/12/10 10:17:58;;;;;;;23.00;13.40;;;3.30;82.20;;;;;;5133291;27;20488;-74
2020/12/10 10:20:24;;;;;;;24.50;14.32;;;3.30;82.10;;;;;;5134464;27;20038;-73
2020/12/10 10:22:50;;;;;;;26.13;14.07;;;3.30;82.00;;;;;;5133235;27;20088;-74
2020/12/10 10:25:16;;;;;;;25.05;13.98;;;3.30;82.10;;;;;;5133407;27;20026;-74
2020/12/10 10:27:45;;;;;;;23.33;13.90;;;3.30;82.10;;;;;;5132982;27;20111;-73
2020/12/10 10:30:11;;;;;;;23.92;14.75;;;3.40;82.10;;;;;;5134350;27;20054;-73
2020/12/10 10:32:38;;;;;;;22.35;12.40;;;3.30;82.00;;;;;;5133127;27;20038;-74
2020/12/10 10:35:03;;;;;;;23.63;13.60;;;3.40;82.00;;;;;;5153850;27;20044;-73
2020/12/10 10:37:29;;;;;;;25.80;14.07;;;3.40;82.00;;;;;;5136468;27;20071;-74
2020/12/10 10:39:55;;;;;;;22.20;13.27;;;3.40;82.00;;;;;;5119564;27;20027;-74
2020/12/10 10:42:28;;;;;;;25.45;14.45;;;3.40;81.90;;;;;;5136539;27;20027;-74
2020/12/10 10:44:53;;;;;;;27.63;14.03;;;3.40;81.90;;;;;;5154949;27;20108;-73
2020/12/10 10:47:19;;;;;;;29.20;15.02;;;3.40;81.90;;;;;;5136344;27;20019;-74
2020/12/10 10:50:07;;;;;;;29.40;16.05;;;3.40;81.90;;;;;;5154936;27;20030;-74
2020/12/10 10:52:34;;;;;;;27.48;15.48;;;3.40;81.90;;;;;;5135847;27;20066;-74
2020/12/10 10:55:02;;;;;;;26.42;14.70;;;3.30;81.90;;;;;;5154869;27;20030;-73
2020/12/10 10:57:28;;;;;;;25.52;14.18;;;3.30;81.90;;;;;;5155035;27;20034;-73
2020/12/10 10:59:53;;;;;;;28.73;15.75;;;3.30;82.00;;;;;;5136334;27;20030;-73
2020/12/10 11:02:19;;;;;;;25.80;14.38;;;3.30;82.00;;;;;;5136167;27;20037;-73
2020/12/10 11:04:45;;;;;;;23.85;14.57;;;3.30;82.00;;;;;;5136109;27;20027;-74
2020/12/10 11:07:10;;;;;;;24.42;14.00;;;3.30;82.00;;;;;;5136190;27;20018;-73
2020/12/10 11:09:36;;;;;;;26.33;14.73;;;3.30;82.00;;;;;;5154970;27;20034;-73
2020/12/10 11:12:02;;;;;;;26.45;14.93;;;3.30;81.90;;;;;;5136027;27;20398;-73
2020/12/10 11:14:28;;;;;;;24.35;14.57;;;3.30;82.00;;;;;;5154728;27;20055;-73
2020/12/10 11:16:56;;;;;;;29.40;15.60;;;3.20;82.10;;;;;;5133879;27;20061;-73
2020/12/10 11:19:25;;;;;;;22.58;13.43;;;3.30;82.20;;;;;;5136006;27;20118;-74
2020/12/10 11:21:52;;;;;;;21.92;13.60;;;3.30;82.20;;;;;;5135856;27;20465;-73
2020/12/10 11:24:27;;;;;;;24.17;13.00;;;3.30;82.10;;;;;;5135742;27;20027;-73
2020/12/10 11:26:53;;;;;;;26.95;14.10;;;3.40;82.10;;;;;;5154096;27;20110;-74
2020/12/10 11:29:23;;;;;;;23.88;13.90;;;3.40;82.00;;;;;;5135712;27;20125;-73
2020/12/10 11:32:10;;;;;;;26.95;14.32;;;3.40;82.00;;;;;;5154747;27;20033;-73
2020/12/10 11:34:35;;;;;;;24.10;12.98;;;3.40;81.90;;;;;;5119109;28;20126;-73
2020/12/10 11:37:01;;;;;;;23.65;13.02;;;3.50;81.90;;;;;;5113054;28;20179;-73
2020/12/10 11:39:27;;;;;;;27.88;16.42;;;3.50;81.90;;;;;;5113032;28;20062;-73
2020/12/10 11:41:52;;;;;;;28.63;15.57;;;3.50;81.80;;;;;;5113534;28;20123;-73
2020/12/10 11:44:19;;;;;;;29.35;15.57;;;3.50;81.80;;;;;;5112603;28;20031;-73
2020/12/10 11:46:48;;;;;;;23.75;13.35;;;3.50;81.90;;;;;;5112238;28;20031;-73
2020/12/10 11:49:14;;;;;;;27.85;14.65;;;3.50;81.90;;;;;;5113463;28;20074;-73
2020/12/10 11:51:40;;;;;;;23.38;13.65;;;3.50;81.90;;;;;;5112172;28;20444;-74
2020/12/10 11:54:06;;;;;;;23.42;13.40;;;3.50;81.90;;;;;;5111572;28;20368;-73
2020/12/10 11:56:32;;;;;;;25.02;14.48;;;3.50;81.90;;;;;;5112254;28;20501;-73
2020/12/10 11:59:18;;;;;;;24.08;13.00;;;3.50;81.80;;;;;;5116949;28;20054;-73
2020/12/10 12:01:46;;;;;;;22.42;12.95;;;3.50;81.90;;;;;;5115530;28;20031;-73
2020/12/10 12:04:12;;;;;;;27.88;14.40;;;3.60;81.90;;;;;;5117258;28;20474;-73
2020/12/10 12:06:37;;;;;;;23.10;14.05;;;3.70;81.90;;;;;;5116648;28;20088;-73
2020/12/10 12:09:05;;;;;;;24.48;13.95;;;3.70;81.70;;;;;;5116647;28;20080;-73
2020/12/10 12:11:50;;;;;;;24.63;13.60;;;3.80;81.70;;;;;;5114987;28;20036;-73
2020/12/10 12:14:16;;;;;;;24.55;13.90;;;3.90;82.30;;;;;;5116170;28;20542;-73
2020/12/10 12:16:53;;;;;;;21.40;13.13;;;4.00;81.60;;;;;;5116621;28;20104;-73
2020/12/10 12:23:28;;;;;;;22.63;12.55;;;4.10;81.30;;;;;;5119185;28;20081;-73
2020/12/10 12:25:53;;;;;;;23.17;13.63;;;4.10;81.30;;;;;;5115270;28;20042;-72
2020/12/10 12:28:23;;;;;;;24.13;13.80;;;4.20;81.30;;;;;;5118688;28;20042;-75
2020/12/10 12:31:07;;;;;;;23.77;13.50;;;4.20;81.30;;;;;;5118612;28;20027;-80
2020/12/10 12:34:38;;;;;;;24.98;13.32;;;4.20;81.20;;;;;;5121801;27;20043;-74
2020/12/10 12:37:23;;;;;;;21.33;12.10;;;4.20;81.10;;;;;;5114615;28;20067;-72
2020/12/10 12:39:49;;;;;;;20.83;12.13;;;4.30;81.10;;;;;;5117150;28;20030;-74
2020/12/10 12:42:36;;;;;;;26.90;15.60;;;4.30;81.10;;;;;;5116367;28;20020;-73
2020/12/10 12:45:02;;;;;;;21.58;12.88;;;4.30;81.00;;;;;;5116602;28;20540;-73
2020/12/10 12:47:49;;;;;;;24.30;12.85;;;4.20;81.00;;;;;;5116479;28;20446;-73
2020/12/10 12:50:22;;;;;;;22.08;13.00;;;4.20;81.00;;;;;;5098848;28;20094;-73
2020/12/10 12:52:48;;;;;;;21.65;12.43;;;4.20;81.10;;;;;;5115412;28;20031;-73
2020/12/10 12:55:14;;;;;;;21.40;12.52;;;4.10;81.10;;;;;;5114412;28;20030;-73
2020/12/10 12:58:02;;;;;;;25.65;14.68;;;4.10;81.20;;;;;;5116614;28;20049;-74
2020/12/10 13:00:28;;;;;;;23.52;14.00;;;4.10;81.30;;;;;;5115741;27;20027;-73
2020/12/10 13:02:55;;;;;;;23.02;13.40;;;4.10;81.30;;;;;;5114671;28;20016;-73
2020/12/10 13:05:21;;;;;;;22.50;12.95;;;4.10;81.20;;;;;;5114129;28;20023;-73
2020/12/10 13:07:46;;;;;;;26.08;13.57;;;4.10;81.20;;;;;;5115492;28;20393;-73
2020/12/10 13:10:14;;;;;;;22.13;12.95;;;4.20;81.30;;;;;;5113666;28;20511;-73